createdAt,value
2022-11-14T20:22:04.053Z,9.18
2022-11-14T20:23:03.978Z,9.13
2022-11-14T20:24:03.931Z,9.13
2022-11-14T20:25:03.876Z,9.11
2022-11-14T20:26:08.426Z,9.11
2022-11-14T20:27:03.776Z,9.02
2022-11-14T20:28:03.724Z,9.02
2022-11-14T20:29:03.672Z,9.08
2022-11-14T20:30:03.621Z,8.97
2022-11-14T20:31:03.574Z,8.97
2022-11-14T20:32:03.524Z,8.95
2022-11-14T20:33:03.477Z,8.95
2022-11-14T20:34:03.433Z,8.97
2022-11-14T20:35:03.378Z,8.97
2022-11-14T20:36:03.327Z,8.99
2022-11-14T20:37:10.948Z,8.87
2022-11-14T20:38:04.700Z,8.95
2022-11-14T20:39:03.181Z,8.96
2022-11-14T20:40:03.132Z,8.95
2022-11-14T20:41:03.083Z,8.95
2022-11-14T20:42:03.036Z,8.90
2022-11-14T20:43:02.993Z,8.90
2022-11-14T20:44:02.944Z,8.86
2022-11-14T20:45:02.891Z,9.00
2022-11-14T20:46:02.840Z,8.92
2022-11-14T20:47:06.094Z,9.05
2022-11-14T20:48:02.777Z,9.00
2022-11-14T20:49:02.703Z,9.08
2022-11-14T20:50:02.649Z,9.08
2022-11-14T20:51:02.605Z,9.13
2022-11-14T20:52:02.551Z,9.11
2022-11-14T20:53:02.506Z,9.12
2022-11-14T20:54:02.485Z,9.21
2022-11-14T20:55:05.130Z,9.18
2022-11-14T20:56:02.360Z,9.26
2022-11-14T20:57:02.313Z,9.29
2022-11-14T21:00:28.867Z,9.33
2022-11-14T21:01:28.829Z,9.31
2022-11-14T21:02:28.773Z,9.34
2022-11-14T21:03:29.011Z,9.44
2022-11-14T21:04:28.678Z,9.48
2022-11-14T21:05:28.629Z,9.31
2022-11-14T21:06:28.580Z,9.42
2022-11-14T21:07:28.610Z,9.45
2022-11-14T21:08:28.788Z,9.36
2022-11-14T21:09:28.458Z,9.45
2022-11-14T21:10:28.409Z,9.42
2022-11-14T21:11:28.402Z,9.33
2022-11-14T21:12:28.321Z,9.33
2022-11-14T21:13:28.655Z,9.47
2022-11-14T21:14:28.199Z,9.39
2022-11-14T21:15:28.153Z,9.48
2022-11-14T21:16:28.108Z,9.45
2022-11-14T21:17:28.057Z,9.45
2022-11-14T21:18:28.421Z,9.40
2022-11-14T21:19:27.962Z,9.36
2022-11-14T21:20:27.913Z,9.49
2022-11-14T21:21:27.866Z,9.48
2022-11-14T21:22:27.819Z,9.49
2022-11-14T21:23:27.771Z,9.51
2022-11-14T21:24:27.724Z,9.47
2022-11-14T21:25:27.694Z,9.45
2022-11-14T21:26:27.629Z,9.49
2022-11-14T21:27:27.582Z,9.52
2022-11-14T21:28:27.614Z,9.51
2022-11-14T21:29:27.483Z,9.56
2022-11-14T21:30:27.438Z,9.54
2022-11-14T21:32:27.344Z,9.70
2022-11-14T21:33:27.333Z,9.63
2022-11-14T21:34:27.249Z,9.70
2022-11-14T21:35:27.197Z,9.70
2022-11-14T21:36:44.518Z,9.73
2022-11-14T21:37:27.102Z,9.62
2022-11-14T21:38:27.059Z,9.69
2022-11-14T21:39:27.008Z,9.72
2022-11-14T21:40:26.962Z,9.72
2022-11-14T21:41:26.934Z,9.74
2022-11-14T21:42:26.872Z,9.74
2022-11-14T21:43:26.816Z,9.73
2022-11-14T21:44:26.777Z,9.80
2022-11-14T21:45:26.927Z,9.80
2022-11-14T21:46:26.679Z,9.76
2022-11-14T21:47:26.627Z,9.91
2022-11-14T21:48:26.583Z,9.91
2022-11-14T21:49:26.531Z,9.87
2022-11-14T21:50:26.486Z,9.92
2022-11-14T21:51:26.441Z,9.88
2022-11-14T21:52:26.393Z,9.94
2022-11-14T21:53:26.345Z,9.91
2022-11-14T21:54:26.295Z,9.99
2022-11-14T21:55:26.249Z,9.97
2022-11-14T21:56:26.202Z,10.03
2022-11-14T21:57:26.172Z,10.03
2022-11-14T21:58:26.107Z,10.02
2022-11-14T21:59:26.058Z,10.02
2022-11-14T22:00:26.013Z,10.07
2022-11-14T22:01:25.983Z,10.02
2022-11-14T22:02:25.921Z,10.06
2022-11-14T22:03:25.869Z,10.05
2022-11-14T22:04:25.822Z,10.09
2022-11-14T22:05:25.778Z,10.03
2022-11-14T22:06:25.727Z,10.06
2022-11-14T22:07:25.706Z,10.03
2022-11-14T22:09:25.586Z,10.12
2022-11-14T22:10:25.538Z,10.13
2022-11-14T22:11:25.494Z,10.13
2022-11-14T22:12:25.445Z,10.20
2022-11-14T22:13:25.413Z,10.24
2022-11-14T22:14:25.555Z,10.21
2022-11-14T22:15:25.304Z,10.27
2022-11-14T22:16:25.254Z,10.31
2022-11-14T22:17:25.228Z,10.25
2022-11-14T22:18:25.198Z,10.28
2022-11-14T22:19:25.121Z,10.27
2022-11-14T22:20:25.066Z,10.23
2022-11-14T22:21:25.018Z,10.24
2022-11-14T22:22:24.970Z,10.34
2022-11-14T22:23:24.926Z,10.41
2022-11-14T22:24:24.881Z,10.34
2022-11-14T22:25:24.830Z,10.43
2022-11-14T22:26:24.786Z,10.42
2022-11-14T22:27:24.738Z,10.43
2022-11-14T22:28:24.689Z,10.45
2022-11-14T22:29:24.661Z,10.45
2022-11-14T22:30:24.594Z,10.49
2022-11-14T22:31:24.550Z,10.45
2022-11-14T22:32:24.498Z,10.49
2022-11-14T22:33:24.451Z,10.57
2022-11-14T22:34:24.407Z,10.53
2022-11-14T22:35:24.368Z,10.64
2022-11-14T22:36:24.315Z,10.45
2022-11-14T22:37:24.266Z,10.53
2022-11-14T22:38:24.216Z,10.64
2022-11-14T22:39:24.174Z,10.58
2022-11-14T22:40:24.139Z,10.53
2022-11-14T22:41:27.779Z,10.58
2022-11-14T22:42:24.029Z,10.59
2022-11-14T22:43:23.983Z,10.61
2022-11-14T22:44:23.935Z,10.67
2022-11-14T22:45:23.907Z,10.62
2022-11-14T22:46:23.839Z,10.68
2022-11-14T22:47:23.792Z,10.68
2022-11-14T22:48:23.745Z,10.72
2022-11-14T22:49:23.698Z,10.67
2022-11-14T22:50:23.649Z,10.68
2022-11-14T22:51:23.603Z,10.71
2022-11-14T22:52:23.560Z,10.67
2022-11-14T22:53:23.510Z,10.72
2022-11-14T22:54:23.461Z,10.75
2022-11-14T22:55:23.419Z,10.80
2022-11-14T22:56:23.368Z,10.80
2022-11-14T22:57:23.325Z,10.86
2022-11-14T22:58:23.282Z,10.80
2022-11-14T22:59:23.236Z,10.86
2022-11-14T23:00:23.188Z,10.98
2022-11-14T23:01:23.154Z,10.94
2022-11-14T23:02:23.085Z,10.95
2022-11-14T23:03:23.087Z,10.90
2022-11-14T23:04:22.993Z,10.98
2022-11-14T23:05:22.948Z,10.98
2022-11-14T23:06:22.901Z,10.95
2022-11-14T23:07:22.884Z,11.04
2022-11-14T23:08:22.894Z,11.05
2022-11-14T23:09:22.759Z,11.05
2022-11-14T23:10:22.710Z,11.10
